createdAt,value
2022-10-17T00:00:09.652Z,100692.50
2022-10-17T00:02:36.572Z,100695.19
2022-10-17T00:05:03.750Z,100688.19
2022-10-17T00:07:31.052Z,100697.88
2022-10-17T00:09:58.343Z,100693.53
2022-10-17T00:12:25.363Z,100693.53
2022-10-17T00:14:52.345Z,100689.19
2022-10-17T00:17:19.334Z,100686.59
2022-10-17T00:19:46.292Z,100673.44
2022-10-17T00:22:13.685Z,100681.34
2022-10-17T00:24:40.673Z,100674.34
2022-10-17T00:27:07.870Z,100673.44
2022-10-17T00:29:34.892Z,100671.72
2022-10-17T00:32:01.803Z,100665.56
2022-10-17T00:34:29.740Z,100668.19
2022-10-17T00:36:57.017Z,100665.56
2022-10-17T00:39:25.258Z,100648.91
2022-10-17T00:41:52.199Z,100647.19
2022-10-17T00:44:32.032Z,100645.50
2022-10-17T00:47:01.345Z,100648.13
2022-10-17T00:49:29.998Z,100651.63
2022-10-17T00:51:59.223Z,100647.25
2022-10-17T00:54:29.062Z,100636.75
2022-10-17T00:56:56.658Z,100642.03
2022-10-17T00:59:28.005Z,100633.19
2022-10-17T01:02:06.317Z,100630.56
2022-10-17T01:04:33.459Z,100631.41
2022-10-17T01:07:00.712Z,100620.03
2022-10-17T01:09:27.762Z,100615.69
2022-10-17T01:12:10.809Z,100612.19
2022-10-17T01:14:45.079Z,100613.09
2022-10-17T01:17:24.288Z,100602.63
2022-10-17T01:20:11.487Z,100607.00
2022-10-17T01:22:47.443Z,100595.66
2022-10-17T01:25:26.590Z,100596.56
2022-10-17T01:28:09.682Z,100587.00
2022-10-17T01:30:55.378Z,100582.63
2022-10-17T01:33:28.444Z,100580.06
2022-10-17T01:36:03.281Z,100577.44
2022-10-17T01:38:42.565Z,100570.47
2022-10-17T01:41:23.525Z,100574.84
2022-10-17T01:44:03.804Z,100569.59
2022-10-17T01:46:34.740Z,100566.06
2022-10-17T01:49:02.961Z,100563.44
2022-10-17T01:51:38.887Z,100562.50
2022-10-17T01:54:12.139Z,100567.75
2022-10-17T01:56:41.185Z,100555.50
2022-10-17T01:59:13.956Z,100551.97
2022-10-17T02:01:42.368Z,100553.78
2022-10-17T02:04:11.162Z,100557.28
2022-10-17T02:06:38.177Z,100552.03
2022-10-17T02:09:18.075Z,100550.25
2022-10-17T02:12:05.462Z,100550.25
2022-10-17T02:14:37.815Z,100545.00
2022-10-17T02:17:25.225Z,100557.22
2022-10-17T02:19:59.882Z,100552.97
2022-10-17T02:22:30.586Z,100559.13
2022-10-17T02:24:57.592Z,100544.22
2022-10-17T02:27:24.984Z,100545.09
2022-10-17T02:30:00.745Z,100543.31
2022-10-17T02:32:48.001Z,100545.03
2022-10-17T02:35:21.808Z,100538.94
2022-10-17T02:37:49.867Z,100541.59
2022-10-17T02:40:20.560Z,100540.69
2022-10-17T02:42:48.670Z,100542.47
2022-10-17T02:45:16.037Z,100537.25
2022-10-17T02:47:49.091Z,100538.97
2022-10-17T02:50:16.324Z,100536.34
2022-10-17T02:52:51.227Z,100534.63
2022-10-17T02:55:25.349Z,100526.69
2022-10-17T02:57:58.341Z,100525.00
2022-10-17T03:00:25.769Z,100519.75
2022-10-17T03:02:53.767Z,100516.22
2022-10-17T03:05:22.154Z,100515.31
2022-10-17T03:07:49.241Z,100514.41
2022-10-17T03:10:16.813Z,100511.72
2022-10-17T03:12:43.984Z,100512.59
2022-10-17T03:15:12.681Z,100510.81
2022-10-17T03:17:41.629Z,100513.44
2022-10-17T03:20:09.950Z,100503.84
2022-10-17T03:22:37.070Z,100489.00
2022-10-17T03:25:05.660Z,100496.06
2022-10-17T03:27:35.492Z,100482.13
2022-10-17T03:30:02.705Z,100470.88
2022-10-17T03:32:33.491Z,100458.66
2022-10-17T03:35:00.433Z,100461.34
2022-10-17T03:37:27.924Z,100457.84
2022-10-17T03:39:55.416Z,100454.38
2022-10-17T03:42:22.398Z,100455.25
2022-10-17T03:44:49.447Z,100449.97
2022-10-17T03:47:17.317Z,100450.94
2022-10-17T03:49:45.525Z,100443.03
2022-10-17T03:52:13.533Z,100443.91
2022-10-17T03:54:40.727Z,100440.41
2022-10-17T03:57:07.792Z,100441.28
2022-10-17T03:59:36.225Z,100442.19
2022-10-17T04:02:08.179Z,100445.66
2022-10-17T04:04:35.694Z,100439.50
2022-10-17T04:07:03.642Z,100434.22
2022-10-17T04:09:30.804Z,100434.25
2022-10-17T04:12:11.067Z,100433.34
2022-10-17T04:14:38.477Z,100424.47
2022-10-17T04:17:05.602Z,100424.41
2022-10-17T04:19:33.918Z,100423.50
2022-10-17T04:22:03.281Z,100430.47
2022-10-17T04:24:33.384Z,100430.28
2022-10-17T04:27:11.737Z,100440.59
2022-10-17T04:29:44.893Z,100426.59
2022-10-17T04:32:17.937Z,100422.22
2022-10-17T04:34:51.191Z,100407.31
2022-10-17T04:37:21.181Z,100400.31
2022-10-17T04:39:50.361Z,100404.78
2022-10-17T04:42:17.367Z,100401.22
2022-10-17T04:44:44.952Z,100398.44
2022-10-17T04:47:13.518Z,100401.91
2022-10-17T04:52:16.329Z,100392.03
2022-10-17T04:54:45.429Z,100385.75
2022-10-17T04:57:14.429Z,100390.03
2022-10-17T04:59:45.863Z,100385.72
2022-10-17T05:02:41.963Z,100382.19
2022-10-17T05:05:09.384Z,100387.53
2022-10-17T05:07:39.966Z,100378.72
2022-10-17T05:10:13.773Z,100379.47
2022-10-17T05:12:45.031Z,100379.34
2022-10-17T05:15:13.454Z,100381.03
2022-10-17T05:17:41.284Z,100378.38
2022-10-17T05:20:08.908Z,100379.25
2022-10-17T05:22:39.651Z,100378.31
2022-10-17T05:25:10.492Z,100375.63
2022-10-17T05:27:38.368Z,100376.44
2022-10-17T05:30:06.344Z,100368.47
2022-10-17T05:32:35.373Z,100354.38
2022-10-17T05:35:04.341Z,100345.53
2022-10-17T05:37:32.683Z,100348.94
2022-10-17T05:40:01.197Z,100351.44
2022-10-17T05:42:31.040Z,100366.19
2022-10-17T05:44:58.678Z,100366.91
2022-10-17T05:47:27.004Z,100355.22
2022-10-17T05:49:54.159Z,100349.75
2022-10-17T05:52:28.273Z,100340.91
2022-10-17T05:55:10.498Z,100338.16
2022-10-17T05:57:37.628Z,100326.41
2022-10-17T06:00:08.489Z,100310.19
2022-10-17T06:02:41.696Z,100317.81
2022-10-17T06:05:10.708Z,100325.41
2022-10-17T06:07:37.895Z,100312.03
2022-10-17T06:10:06.342Z,100326.91
2022-10-17T06:12:33.502Z,100313.84
2022-10-17T06:15:00.807Z,100319.44
2022-10-17T06:17:29.317Z,100307.44
2022-10-17T06:19:57.469Z,100312.91
2022-10-17T06:22:24.967Z,100306.94
2022-10-17T06:24:53.851Z,100311.38
2022-10-17T06:27:21.441Z,100311.38
2022-10-17T06:29:48.741Z,100319.13
2022-10-17T06:32:17.008Z,100313.78
2022-10-17T06:34:46.584Z,100318.84
2022-10-17T06:37:13.519Z,100316.03
2022-10-17T06:39:41.716Z,100314.94
2022-10-17T06:42:21.082Z,100321.75
2022-10-17T06:44:56.022Z,100308.59
2022-10-17T06:47:45.357Z,100306.88
2022-10-17T06:50:27.996Z,100292.94
2022-10-17T06:53:31.954Z,100293.66
2022-10-17T06:56:27.322Z,100281.72
2022-10-17T06:59:12.838Z,100281.09
2022-10-17T07:01:48.437Z,100282.84
2022-10-17T07:04:16.346Z,100286.94
2022-10-17T07:06:43.880Z,100277.56
2022-10-17T07:09:20.762Z,100284.97
2022-10-17T07:11:48.011Z,100277.66
2022-10-17T07:14:18.320Z,100277.50
2022-10-17T07:16:46.633Z,100283.44
2022-10-17T07:19:18.321Z,100281.31
2022-10-17T07:21:45.631Z,100267.63
2022-10-17T07:24:13.511Z,100272.66
2022-10-17T07:26:45.701Z,100148.66
2022-10-17T07:29:13.249Z,100268.44
2022-10-17T07:31:45.983Z,100253.81
2022-10-17T07:34:13.144Z,100257.94
2022-10-17T07:36:40.597Z,100269.72
2022-10-17T07:39:08.631Z,100262.94
2022-10-17T07:41:37.870Z,100256.94
2022-10-17T07:44:05.477Z,100251.63
2022-10-17T07:46:37.521Z,100256.91
2022-10-17T07:49:05.714Z,100257.88
2022-10-17T07:51:34.151Z,100271.09
2022-10-17T07:54:01.184Z,100268.47
2022-10-17T07:56:29.727Z,100262.41
2022-10-17T08:01:29.243Z,100271.53
2022-10-17T08:03:56.221Z,100269.00
2022-10-17T08:06:23.240Z,100272.69
2022-10-17T08:08:50.232Z,100257.56
2022-10-17T08:11:17.262Z,100260.19
2022-10-17T08:13:44.151Z,100264.53
2022-10-17T08:16:12.148Z,100242.56
2022-10-17T08:18:39.972Z,100233.84
2022-10-17T08:21:08.492Z,100240.16
2022-10-17T08:23:36.439Z,100228.91
2022-10-17T08:26:04.966Z,100214.97
2022-10-17T08:28:32.066Z,100230.00
2022-10-17T08:31:03.339Z,100240.56
2022-10-17T08:33:30.366Z,100212.44
2022-10-17T08:35:58.518Z,100225.69
2022-10-17T08:38:27.798Z,100230.94
2022-10-17T08:40:58.052Z,100239.59
2022-10-17T08:43:35.353Z,100244.81
2022-10-17T08:46:03.920Z,100250.88
2022-10-17T08:48:42.634Z,100242.09
2022-10-17T08:51:11.110Z,100248.28
2022-10-17T08:53:44.058Z,100243.91
2022-10-17T08:56:19.917Z,100241.31
2022-10-17T08:58:52.191Z,100255.41
2022-10-17T09:01:37.768Z,100260.69
2022-10-17T09:04:10.533Z,100265.13
2022-10-17T09:06:57.755Z,100246.78
2022-10-17T09:09:36.052Z,100243.41
2022-10-17T09:12:08.901Z,100249.13
2022-10-17T09:14:58.286Z,100249.53
2022-10-17T09:17:38.414Z,100228.75
2022-10-17T09:20:10.050Z,100233.66
2022-10-17T09:22:41.510Z,100230.53
2022-10-17T09:25:12.560Z,100238.78
2022-10-17T09:27:45.725Z,100229.56
2022-10-17T09:30:47.505Z,100224.53
2022-10-17T09:33:28.536Z,100235.97
2022-10-17T09:36:09.515Z,100250.78
2022-10-17T09:38:55.443Z,100243.75
2022-10-17T09:41:50.278Z,100246.75
2022-10-17T09:44:22.608Z,100232.31
2022-10-17T09:46:58.978Z,100221.31
2022-10-17T09:49:33.335Z,100202.47
2022-10-17T09:52:01.725Z,100200.22
2022-10-17T09:54:34.287Z,100212.19
2022-10-17T09:57:02.821Z,100217.19
2022-10-17T09:59:30.819Z,100198.78
2022-10-17T10:02:07.979Z,100196.53
2022-10-17T10:04:46.839Z,100210.94
2022-10-17T10:07:26.902Z,100193.34
2022-10-17T10:09:56.912Z,100194.00
2022-10-17T10:12:32.802Z,100179.72
2022-10-17T10:15:00.357Z,100174.88
2022-10-17T10:17:27.431Z,100169.75
2022-10-17T10:19:54.346Z,100167.91
2022-10-17T10:22:23.964Z,100169.09
2022-10-17T10:25:09.879Z,100171.69
2022-10-17T10:27:37.254Z,100161.28
2022-10-17T10:30:04.509Z,100160.44
2022-10-17T10:32:33.547Z,100147.94
2022-10-17T10:35:00.686Z,100143.25
2022-10-17T10:37:30.175Z,100141.19
2022-10-17T10:39:58.706Z,100135.69
2022-10-17T10:42:34.060Z,100134.16
2022-10-17T10:45:04.123Z,100130.44
2022-10-17T10:47:32.890Z,100115.31
2022-10-17T10:50:18.558Z,100137.16
2022-10-17T10:53:05.723Z,100138.13
2022-10-17T10:55:36.778Z,100141.72
2022-10-17T10:58:10.000Z,100137.25
2022-10-17T11:00:38.207Z,100126.72
2022-10-17T11:03:12.767Z,100128.28
2022-10-17T11:05:46.145Z,100132.34
2022-10-17T11:08:24.763Z,100119.38
2022-10-17T11:11:02.278Z,100109.16
2022-10-17T11:13:34.952Z,100111.78
2022-10-17T11:16:07.763Z,100118.19
2022-10-17T11:18:53.416Z,100117.47
2022-10-17T11:21:23.962Z,100113.00
2022-10-17T11:24:00.573Z,100097.41
2022-10-17T11:26:29.070Z,100112.38
2022-10-17T11:28:57.226Z,100098.22
2022-10-17T11:31:45.391Z,100109.72
2022-10-17T11:34:19.618Z,100098.13
2022-10-17T11:36:48.336Z,100111.28
2022-10-17T11:39:17.919Z,100103.16
2022-10-17T11:41:48.893Z,100105.81
2022-10-17T11:44:24.903Z,100123.44
2022-10-17T11:46:55.488Z,100111.78
2022-10-17T11:52:01.947Z,100104.16
2022-10-17T11:54:41.989Z,100102.34
2022-10-17T11:57:14.691Z,100085.81
2022-10-17T11:59:45.035Z,100078.22
2022-10-17T12:02:15.866Z,100076.47
2022-10-17T12:04:55.049Z,100076.75
2022-10-17T12:07:35.281Z,100077.75
2022-10-17T12:10:17.335Z,100068.00
2022-10-17T12:12:44.988Z,100067.13
2022-10-17T12:15:11.927Z,100060.00
2022-10-17T12:17:41.070Z,100051.31
2022-10-17T12:20:25.719Z,100066.41
2022-10-17T12:22:54.207Z,100054.94
2022-10-17T12:25:24.174Z,100063.81
2022-10-17T12:27:51.351Z,100055.84
2022-10-17T12:30:23.331Z,100053.09
2022-10-17T12:33:22.015Z,100049.78
2022-10-17T12:36:08.903Z,100051.66
2022-10-17T12:38:35.891Z,100054.28
2022-10-17T12:41:03.761Z,100051.53
2022-10-17T12:43:30.944Z,100059.34
2022-10-17T12:45:59.261Z,100054.06
2022-10-17T12:48:38.822Z,100061.06
2022-10-17T12:51:36.404Z,100076.97
2022-10-17T12:54:12.895Z,100078.91
2022-10-17T12:56:45.157Z,100077.03
2022-10-17T12:59:17.931Z,100078.91
2022-10-17T13:01:47.581Z,100080.69
2022-10-17T13:04:15.853Z,100094.88
2022-10-17T13:06:48.256Z,100107.25
2022-10-17T13:09:21.038Z,100099.53
2022-10-17T13:11:49.617Z,100106.41
2022-10-17T13:14:18.998Z,100110.75
2022-10-17T13:17:15.299Z,100125.63
2022-10-17T13:19:44.000Z,100144.19
2022-10-17T13:22:18.219Z,100144.16
2022-10-17T13:24:45.672Z,100068.31
2022-10-17T13:27:23.242Z,100161.53
2022-10-17T13:29:50.174Z,100171.13
2022-10-17T13:32:17.450Z,100158.81
2022-10-17T13:34:45.067Z,100158.72
2022-10-17T13:37:13.616Z,100148.97
2022-10-17T13:39:54.852Z,100150.72
2022-10-17T13:42:30.646Z,100145.53
2022-10-17T13:44:58.559Z,100147.28
2022-10-17T13:47:29.760Z,100138.41
2022-10-17T13:49:57.911Z,100141.22
2022-10-17T13:52:27.114Z,100142.09
2022-10-17T13:54:56.882Z,100138.56
2022-10-17T13:57:25.377Z,100133.38
2022-10-17T13:59:55.111Z,100122.75
2022-10-17T14:02:27.018Z,100110.38
2022-10-17T14:05:17.283Z,100101.59
2022-10-17T14:10:37.617Z,100099.09
2022-10-17T14:13:05.948Z,100096.44
2022-10-17T14:15:34.602Z,100109.72
2022-10-17T14:18:07.525Z,100094.75
2022-10-17T14:23:29.078Z,100088.09
2022-10-17T14:26:06.717Z,100082.44
2022-10-17T14:28:34.561Z,100087.41
2022-10-17T14:31:21.782Z,100083.41
2022-10-17T14:33:51.096Z,100083.56
2022-10-17T14:36:19.017Z,100084.47
2022-10-17T14:38:47.914Z,100081.94
2022-10-17T14:41:42.523Z,100094.16
2022-10-17T14:44:17.013Z,100095.88
2022-10-17T14:46:48.448Z,100101.22
2022-10-17T14:49:24.306Z,100096.06
2022-10-17T14:52:12.365Z,100096.22
2022-10-17T14:54:44.739Z,100101.53
2022-10-17T14:57:34.563Z,100103.34
2022-10-17T15:00:01.633Z,100097.31
2022-10-17T15:02:31.078Z,100096.47
2022-10-17T15:04:58.343Z,100099.72
2022-10-17T15:07:25.465Z,100091.66
2022-10-17T15:09:53.460Z,100096.72
2022-10-17T15:12:25.410Z,100097.56
2022-10-17T15:14:52.868Z,100088.75
2022-10-17T15:17:24.988Z,100110.75
2022-10-17T15:19:52.094Z,100114.41
2022-10-17T15:22:19.047Z,100112.66
2022-10-17T15:24:46.428Z,100110.94
2022-10-17T15:27:21.401Z,100111.97
2022-10-17T15:29:48.873Z,100111.03
2022-10-17T15:32:15.822Z,100114.59
2022-10-17T15:34:43.349Z,100119.72
2022-10-17T15:37:24.614Z,100117.91
2022-10-17T15:39:55.776Z,100116.94
2022-10-17T15:42:26.534Z,100112.50
2022-10-17T15:44:53.765Z,100127.19
2022-10-17T15:47:31.575Z,100120.09
2022-10-17T15:49:59.429Z,100119.88
2022-10-17T15:52:26.473Z,100118.09
2022-10-17T15:54:54.345Z,100133.84
2022-10-17T15:57:23.335Z,100127.69
2022-10-17T15:59:51.218Z,100133.66
2022-10-17T16:02:19.037Z,100129.84
2022-10-17T16:04:46.745Z,100130.56
2022-10-17T16:07:13.765Z,100123.50
2022-10-17T16:09:40.882Z,100116.41
2022-10-17T16:12:12.515Z,100121.56
2022-10-17T16:14:39.551Z,100121.50
2022-10-17T16:17:06.514Z,100111.09
2022-10-17T16:19:33.516Z,100124.31
2022-10-17T16:22:04.356Z,100119.09
2022-10-17T16:24:31.888Z,100124.34
2022-10-17T16:26:58.851Z,100128.47
2022-10-17T16:29:25.944Z,100131.63
2022-10-17T16:31:53.539Z,100130.63
2022-10-17T16:34:20.588Z,100134.88
2022-10-17T16:36:50.446Z,100137.28
2022-10-17T16:41:57.739Z,100135.34
2022-10-17T16:44:29.339Z,100135.34
2022-10-17T16:46:59.289Z,100136.91
2022-10-17T16:49:44.487Z,100150.75
2022-10-17T16:52:14.997Z,100149.75
2022-10-17T16:54:52.371Z,100138.34
2022-10-17T16:57:22.493Z,100139.31
2022-10-17T17:02:43.327Z,100137.59
2022-10-17T17:05:15.758Z,100132.25
2022-10-17T17:10:37.717Z,100145.19
2022-10-17T17:13:16.395Z,100151.19
2022-10-17T17:19:27.821Z,100154.53
2022-10-17T17:21:54.805Z,100154.44
2022-10-17T17:24:21.851Z,100149.91
2022-10-17T17:26:52.776Z,100150.59
2022-10-17T17:29:20.132Z,100131.28
2022-10-17T17:31:47.288Z,100135.97
2022-10-17T17:34:17.284Z,100144.09
2022-10-17T17:36:45.451Z,100137.03
2022-10-17T17:39:13.806Z,100146.78
2022-10-17T17:41:41.441Z,100136.47
2022-10-17T17:44:12.455Z,100137.28
2022-10-17T17:46:43.967Z,100139.94
2022-10-17T17:49:11.753Z,100154.84
2022-10-17T17:51:38.977Z,100138.09
2022-10-17T17:54:05.966Z,100153.84
2022-10-17T17:56:32.930Z,100148.53
2022-10-17T17:59:00.872Z,100142.31
2022-10-17T18:01:29.344Z,100142.34
2022-10-17T18:03:59.057Z,100142.31
2022-10-17T18:06:26.874Z,100144.81
2022-10-17T18:08:58.131Z,100141.34
2022-10-17T18:11:25.692Z,100135.78
2022-10-17T18:14:11.698Z,100143.44
2022-10-17T18:16:38.768Z,100141.56
2022-10-17T18:19:07.216Z,100138.00
2022-10-17T18:21:34.606Z,100144.97
2022-10-17T18:24:01.914Z,100136.91
2022-10-17T18:26:28.937Z,100143.00
2022-10-17T18:28:56.427Z,100149.28
2022-10-17T18:31:28.310Z,100160.06
2022-10-17T18:33:56.666Z,100158.56
2022-10-17T18:36:26.148Z,100157.00
2022-10-17T18:38:53.748Z,100155.28
2022-10-17T18:41:21.755Z,100154.59
2022-10-17T18:43:49.537Z,100152.19
2022-10-17T18:46:18.550Z,100156.59
2022-10-17T18:48:45.892Z,100158.13
2022-10-17T18:51:14.129Z,100166.69
2022-10-17T18:53:42.286Z,100170.81
2022-10-17T18:56:09.766Z,100173.28
2022-10-17T18:58:37.603Z,100177.53
2022-10-17T19:01:05.467Z,100168.00
2022-10-17T19:03:32.663Z,100177.13
2022-10-17T19:06:03.996Z,100180.88
2022-10-17T19:08:31.028Z,100189.06
2022-10-17T19:10:58.002Z,100175.09
2022-10-17T19:13:24.998Z,100178.84
2022-10-17T19:15:52.071Z,100176.41
2022-10-17T19:18:19.019Z,100180.97
2022-10-17T19:20:46.265Z,100174.84
2022-10-17T19:23:13.445Z,100170.41
2022-10-17T19:25:40.517Z,100167.84
2022-10-17T19:28:13.553Z,100171.59
2022-10-17T19:31:12.917Z,100177.97
2022-10-17T19:33:53.528Z,100177.28
2022-10-17T19:36:33.233Z,100175.72
2022-10-17T19:39:06.553Z,100181.13
2022-10-17T19:41:37.153Z,100189.13
2022-10-17T19:44:04.301Z,100178.59
2022-10-17T19:46:34.416Z,100180.41
2022-10-17T19:49:03.145Z,100171.69
2022-10-17T19:51:38.320Z,100183.16
2022-10-17T19:54:12.313Z,100181.44
2022-10-17T19:56:42.114Z,100175.28
2022-10-17T19:59:13.449Z,100173.47
2022-10-17T20:01:43.097Z,100172.53
2022-10-17T20:04:13.489Z,100172.56
2022-10-17T20:06:43.810Z,100181.34
2022-10-17T20:09:17.009Z,100169.00
2022-10-17T20:11:50.231Z,100173.41
2022-10-17T20:14:25.359Z,100187.53
2022-10-17T20:16:57.920Z,100177.06
2022-10-17T20:19:34.617Z,100180.66
2022-10-17T20:22:02.483Z,100178.03
2022-10-17T20:24:30.466Z,100171.00
2022-10-17T20:26:57.465Z,100185.13
2022-10-17T20:29:26.702Z,100189.56
2022-10-17T20:31:53.917Z,100189.63
2022-10-17T20:34:21.472Z,100193.16
2022-10-17T20:36:53.872Z,100195.84
2022-10-17T20:39:33.624Z,100196.75
2022-10-17T20:42:06.163Z,100199.44
2022-10-17T20:44:38.976Z,100195.06
2022-10-17T20:47:16.233Z,100193.44
2022-10-17T20:49:46.852Z,100198.75
2022-10-17T20:52:14.722Z,100204.94
2022-10-17T20:54:41.723Z,100206.75
2022-10-17T20:57:10.509Z,100205.00
2022-10-17T20:59:42.928Z,100206.78
2022-10-17T21:02:19.125Z,100198.94
2022-10-17T21:04:52.446Z,100194.53
2022-10-17T21:07:21.466Z,100189.31
2022-10-17T21:10:35.089Z,100187.56
2022-10-17T21:13:23.242Z,100191.16
2022-10-17T21:16:04.032Z,100193.78
2022-10-17T21:18:49.569Z,100191.25
2022-10-17T21:24:10.608Z,100186.16
2022-10-17T21:27:00.206Z,100185.31
2022-10-17T21:29:28.569Z,100179.22
2022-10-17T21:32:47.328Z,100183.69
2022-10-17T21:35:31.737Z,100174.13
2022-10-17T21:38:24.426Z,100171.56
2022-10-17T21:41:07.290Z,100176.00
2022-10-17T21:43:39.736Z,100173.41
2022-10-17T21:46:17.226Z,100170.84
2022-10-17T21:48:49.061Z,100174.41
2022-10-17T21:51:24.200Z,100174.44
2022-10-17T21:53:51.770Z,100172.72
2022-10-17T21:56:20.340Z,100176.25
2022-10-17T21:58:51.169Z,100172.72
2022-10-17T22:01:20.787Z,100173.59
2022-10-17T22:03:51.924Z,100167.44
2022-10-17T22:09:36.905Z,100164.84
2022-10-17T22:12:05.618Z,100167.47
2022-10-17T22:14:32.543Z,100156.09
2022-10-17T22:16:59.658Z,100147.34
2022-10-17T22:19:27.455Z,100155.25
2022-10-17T22:21:55.111Z,100155.25
2022-10-17T22:24:24.635Z,100149.13
2022-10-17T22:26:53.398Z,100149.13
2022-10-17T22:29:23.001Z,100150.03
2022-10-17T22:31:50.476Z,100151.81
2022-10-17T22:34:20.375Z,100154.47
2022-10-17T22:36:49.069Z,100151.88
2022-10-17T22:39:16.195Z,100150.16
2022-10-17T22:41:43.839Z,100149.31
2022-10-17T22:44:10.816Z,100150.16
2022-10-17T22:46:40.517Z,100146.66
2022-10-17T22:49:07.494Z,100147.47
2022-10-17T22:51:34.565Z,100139.50
2022-10-17T22:54:01.514Z,100142.97
2022-10-17T22:56:28.741Z,100142.03
2022-10-17T22:58:55.718Z,100140.22
2022-10-17T23:01:23.326Z,100133.06
2022-10-17T23:03:51.133Z,100132.03
2022-10-17T23:06:18.372Z,100139.81
2022-10-17T23:08:45.417Z,100148.44
2022-10-17T23:11:13.013Z,100125.59
2022-10-17T23:13:41.111Z,100134.25
2022-10-17T23:16:08.636Z,100128.03
2022-10-17T23:18:35.659Z,100127.06
2022-10-17T23:21:02.774Z,100112.03
2022-10-17T23:23:29.787Z,100125.09
2022-10-17T23:26:03.161Z,100122.31
2022-10-17T23:28:30.971Z,100127.59
2022-10-17T23:30:57.946Z,100124.22
2022-10-17T23:33:24.851Z,100126.91
2022-10-17T23:35:51.759Z,100125.22
2022-10-17T23:38:18.669Z,100133.22
2022-10-17T23:40:45.629Z,100133.34
2022-10-17T23:43:12.619Z,100132.59
2022-10-17T23:48:07.441Z,100134.38
2022-10-17T23:50:34.460Z,100142.22
2022-10-17T23:53:01.753Z,100142.16
2022-10-17T23:55:28.765Z,100136.91
2022-10-17T23:57:55.706Z,100126.44
